createdAt,value
2018-06-09T00:00:27.006Z,22.00
2018-06-09T00:02:53.965Z,22.00
2018-06-09T00:05:20.907Z,22.00
2018-06-09T00:07:57.840Z,22.00
2018-06-09T00:10:24.769Z,21.90
2018-06-09T00:12:51.681Z,21.90
2018-06-09T00:15:18.586Z,22.00
2018-06-09T00:17:45.520Z,21.90
2018-06-09T00:20:12.525Z,21.90
2018-06-09T00:22:39.388Z,21.90
2018-06-09T00:25:06.329Z,21.90
2018-06-09T00:27:33.191Z,21.90
2018-06-09T00:30:00.144Z,21.90
2018-06-09T00:32:27.038Z,21.90
2018-06-09T00:34:54.712Z,21.90
2018-06-09T00:37:21.583Z,21.90
2018-06-09T00:39:48.539Z,21.90
2018-06-09T00:42:15.463Z,21.90
2018-06-09T00:44:42.406Z,21.90
2018-06-09T00:47:09.356Z,21.90
2018-06-09T00:49:36.250Z,22.00
2018-06-09T00:52:03.160Z,21.90
2018-06-09T00:54:30.103Z,21.90
2018-06-09T00:56:57.073Z,21.90
2018-06-09T00:59:24.009Z,21.90
2018-06-09T01:01:50.984Z,21.90
2018-06-09T01:04:17.867Z,21.90
2018-06-09T01:06:44.801Z,21.80
2018-06-09T01:09:11.816Z,21.80
2018-06-09T01:11:38.692Z,21.80
2018-06-09T01:14:06.357Z,21.80
2018-06-09T01:16:34.072Z,21.80
2018-06-09T01:19:01.017Z,21.80
2018-06-09T01:21:27.909Z,21.80
2018-06-09T01:23:55.601Z,21.80
2018-06-09T01:26:22.641Z,21.70
2018-06-09T01:28:49.592Z,21.80
2018-06-09T01:31:16.477Z,21.80
2018-06-09T01:33:43.415Z,21.80
2018-06-09T01:36:10.436Z,21.80
2018-06-09T01:38:37.408Z,21.80
2018-06-09T01:41:04.289Z,21.90
2018-06-09T01:43:32.029Z,21.80
2018-06-09T01:45:58.876Z,21.90
2018-06-09T01:48:25.715Z,21.80
2018-06-09T01:50:52.647Z,21.80
2018-06-09T01:53:19.605Z,21.70
2018-06-09T01:55:46.515Z,21.70
2018-06-09T01:58:13.502Z,21.70
2018-06-09T02:00:40.468Z,21.70
2018-06-09T02:03:07.398Z,21.60
2018-06-09T02:05:34.270Z,21.60
2018-06-09T02:08:01.236Z,21.60
2018-06-09T02:10:28.201Z,21.70
2018-06-09T02:12:55.179Z,21.70
2018-06-09T02:15:22.061Z,21.70
2018-06-09T02:17:48.942Z,21.60
2018-06-09T02:20:15.884Z,21.60
2018-06-09T02:22:42.757Z,21.50
2018-06-09T02:25:09.690Z,21.50
2018-06-09T02:27:36.657Z,21.40
2018-06-09T02:30:03.623Z,21.50
2018-06-09T02:32:30.585Z,21.50
2018-06-09T02:34:57.564Z,21.50
2018-06-09T02:37:24.468Z,21.50
2018-06-09T02:39:51.465Z,21.40
2018-06-09T02:42:18.343Z,21.40
2018-06-09T02:44:45.325Z,21.40
2018-06-09T02:47:12.216Z,21.50
2018-06-09T02:49:39.190Z,21.50
2018-06-09T02:52:06.860Z,21.40
2018-06-09T02:54:33.832Z,21.40
2018-06-09T02:57:00.761Z,21.30
2018-06-09T02:59:27.661Z,21.40
2018-06-09T03:01:54.606Z,21.40
2018-06-09T03:04:21.547Z,21.30
2018-06-09T03:06:48.433Z,21.10
2018-06-09T03:09:15.337Z,21.10
2018-06-09T03:11:42.271Z,21.10
2018-06-09T03:14:09.153Z,21.10
2018-06-09T03:16:36.838Z,21.00
2018-06-09T03:19:03.751Z,21.00
2018-06-09T03:21:30.696Z,21.00
2018-06-09T03:23:57.599Z,21.10
2018-06-09T03:26:24.538Z,21.10
2018-06-09T03:28:51.435Z,21.10
2018-06-09T03:31:18.285Z,21.10
2018-06-09T03:33:45.258Z,21.20
2018-06-09T03:36:12.141Z,21.30
2018-06-09T03:38:39.037Z,21.20
2018-06-09T03:41:06.749Z,21.30
2018-06-09T03:43:33.729Z,21.30
2018-06-09T03:46:00.652Z,21.30
2018-06-09T03:48:27.605Z,21.30
2018-06-09T03:50:54.545Z,21.30
2018-06-09T03:53:21.472Z,21.20
2018-06-09T03:55:48.407Z,21.10
2018-06-09T03:58:15.368Z,21.00
2018-06-09T04:00:42.293Z,21.00
2018-06-09T04:03:09.254Z,21.00
2018-06-09T04:05:36.209Z,21.00
2018-06-09T04:08:03.216Z,21.00
2018-06-09T04:10:30.164Z,21.00
2018-06-09T04:12:57.123Z,21.10
2018-06-09T04:15:24.127Z,21.10
2018-06-09T04:17:51.069Z,21.20
2018-06-09T04:20:17.952Z,21.30
2018-06-09T04:22:44.887Z,21.50
2018-06-09T04:25:11.999Z,21.60
2018-06-09T04:27:48.938Z,21.70
2018-06-09T04:30:16.745Z,21.90
2018-06-09T04:32:43.662Z,21.90
2018-06-09T04:35:10.607Z,23.10
2018-06-09T04:37:37.568Z,23.50
2018-06-09T04:40:04.525Z,25.00
2018-06-09T04:42:31.422Z,25.20
2018-06-09T04:44:58.365Z,25.40
2018-06-09T04:47:25.316Z,24.90
2018-06-09T04:49:52.211Z,24.80
2018-06-09T04:52:19.099Z,25.50
2018-06-09T04:54:46.084Z,25.30
2018-06-09T04:57:12.993Z,25.90
2018-06-09T04:59:40.007Z,25.70
2018-06-09T05:02:06.916Z,25.90
2018-06-09T05:04:33.862Z,26.80
2018-06-09T05:07:00.746Z,29.50
2018-06-09T05:09:27.721Z,30.50
2018-06-09T05:11:55.335Z,30.60
2018-06-09T05:14:22.204Z,30.60
2018-06-09T05:16:49.889Z,27.80
2018-06-09T05:19:16.800Z,27.80
2018-06-09T05:21:43.761Z,26.90
2018-06-09T05:24:11.377Z,25.30
2018-06-09T05:26:38.287Z,25.20
2018-06-09T05:29:05.957Z,24.60
2018-06-09T05:31:33.645Z,24.50
2018-06-09T05:34:00.556Z,24.40
2018-06-09T05:36:28.306Z,24.20
2018-06-09T05:38:55.157Z,24.20
2018-06-09T05:41:22.852Z,24.00
2018-06-09T05:43:49.790Z,24.00
2018-06-09T05:46:16.773Z,23.80
2018-06-09T05:48:43.626Z,23.80
2018-06-09T05:51:10.496Z,23.80
2018-06-09T05:53:37.411Z,23.70
2018-06-09T05:56:04.292Z,23.80
2018-06-09T05:58:31.976Z,23.90
2018-06-09T06:00:58.961Z,23.90
2018-06-09T06:03:29.562Z,24.00
2018-06-09T06:05:57.613Z,24.10
2018-06-09T06:08:39.504Z,24.20
2018-06-09T06:11:19.631Z,24.30
2018-06-09T06:13:54.883Z,24.50
2018-06-09T06:16:24.527Z,24.80
2018-06-09T06:19:02.093Z,24.80
2018-06-09T06:21:29.727Z,25.00
2018-06-09T06:24:01.057Z,25.00
2018-06-09T06:26:28.176Z,25.30
2018-06-09T06:28:55.969Z,25.30
2018-06-09T06:31:22.871Z,25.10
2018-06-09T06:33:49.795Z,25.40
2018-06-09T06:36:18.093Z,25.50
2018-06-09T06:38:45.052Z,25.50
2018-06-09T06:41:16.756Z,25.50
2018-06-09T06:43:44.535Z,25.50
2018-06-09T06:46:14.408Z,25.40
2018-06-09T06:48:41.285Z,25.30
2018-06-09T06:51:08.225Z,25.40
2018-06-09T06:53:35.105Z,25.50
2018-06-09T06:56:02.082Z,25.40
2018-06-09T06:58:40.697Z,25.60
2018-06-09T07:01:24.323Z,25.50
2018-06-09T07:03:53.277Z,25.60
2018-06-09T07:06:22.011Z,25.60
2018-06-09T07:09:01.043Z,25.60
2018-06-09T07:11:41.839Z,25.60
2018-06-09T07:14:13.979Z,25.70
2018-06-09T07:16:41.853Z,25.60
2018-06-09T07:19:09.101Z,25.80
2018-06-09T07:21:48.999Z,25.80
2018-06-09T07:24:29.554Z,25.90
2018-06-09T07:27:01.131Z,26.30
2018-06-09T07:29:34.411Z,26.40
2018-06-09T07:32:02.071Z,26.40
2018-06-09T07:34:28.992Z,26.40
2018-06-09T07:36:56.005Z,26.40
2018-06-09T07:39:35.198Z,26.70
2018-06-09T07:42:13.659Z,26.70
2018-06-09T07:44:43.482Z,28.50
2018-06-09T07:47:11.296Z,28.40
2018-06-09T07:49:39.296Z,28.40
2018-06-09T07:52:06.291Z,28.80
2018-06-09T07:54:33.361Z,29.10
2018-06-09T07:57:08.921Z,28.80
2018-06-09T07:59:35.869Z,28.40
2018-06-09T08:02:03.036Z,29.90
2018-06-09T08:04:29.991Z,31.40
2018-06-09T08:06:57.023Z,30.40
2018-06-09T08:09:23.968Z,30.60
2018-06-09T08:11:50.881Z,30.50
2018-06-09T08:14:17.804Z,29.80
2018-06-09T08:16:44.693Z,29.80
2018-06-09T08:19:11.649Z,30.00
2018-06-09T08:21:38.595Z,30.90
2018-06-09T08:24:19.295Z,32.00
2018-06-09T08:27:01.372Z,32.50
2018-06-09T08:29:44.147Z,33.00
2018-06-09T08:32:25.298Z,32.90
2018-06-09T08:35:07.116Z,33.80
2018-06-09T08:37:48.515Z,34.00
2018-06-09T08:40:30.016Z,32.90
2018-06-09T08:43:09.950Z,32.80
2018-06-09T08:45:52.310Z,33.00
2018-06-09T08:48:33.243Z,33.00
2018-06-09T08:51:16.122Z,32.20
2018-06-09T08:53:58.424Z,32.40
2018-06-09T08:56:28.036Z,33.00
2018-06-09T08:58:55.710Z,33.50
2018-06-09T09:01:34.637Z,33.50
2018-06-09T09:04:13.822Z,33.80
2018-06-09T09:06:48.732Z,33.90
2018-06-09T09:09:22.328Z,33.50
2018-06-09T09:11:50.594Z,32.90
2018-06-09T09:14:19.472Z,32.50
2018-06-09T09:16:46.576Z,32.80
2018-06-09T09:19:21.761Z,32.70
2018-06-09T09:21:57.741Z,32.50
2018-06-09T09:24:25.425Z,32.30
2018-06-09T09:27:03.282Z,32.20
2018-06-09T09:29:30.989Z,32.10
2018-06-09T09:32:07.898Z,32.30
2018-06-09T09:34:35.660Z,32.40
2018-06-09T09:37:14.512Z,32.40
2018-06-09T09:39:53.368Z,33.00
2018-06-09T09:42:20.263Z,33.50
2018-06-09T09:44:47.639Z,33.50
2018-06-09T09:47:14.912Z,33.50
2018-06-09T09:49:50.962Z,33.40
2018-06-09T09:52:20.719Z,34.00
2018-06-09T09:54:48.242Z,34.60
2018-06-09T09:57:29.636Z,34.70
2018-06-09T10:02:53.999Z,35.90
2018-06-09T10:08:17.479Z,36.00
2018-06-09T10:10:59.584Z,36.10
2018-06-09T10:13:39.759Z,36.50
2018-06-09T10:16:20.639Z,36.80
2018-06-09T10:19:00.046Z,36.80
2018-06-09T10:24:30.013Z,36.20
2018-06-09T10:27:10.341Z,35.90
2018-06-09T10:29:39.872Z,36.40
2018-06-09T10:32:09.855Z,36.10
2018-06-09T10:34:40.316Z,36.10
2018-06-09T10:37:07.609Z,36.00
2018-06-09T10:39:34.717Z,36.00
2018-06-09T10:42:04.977Z,35.70
2018-06-09T10:44:32.432Z,35.80
2018-06-09T10:47:02.712Z,35.90
2018-06-09T10:49:32.283Z,34.60
2018-06-09T10:51:59.545Z,35.00
2018-06-09T10:54:34.461Z,35.00
2018-06-09T10:57:09.385Z,35.50
2018-06-09T10:59:39.202Z,35.50
2018-06-09T11:02:09.929Z,35.70
2018-06-09T11:04:42.614Z,35.70
2018-06-09T11:07:10.591Z,35.60
2018-06-09T11:09:37.626Z,35.50
2018-06-09T11:12:04.923Z,35.40
2018-06-09T11:14:32.729Z,35.60
2018-06-09T11:17:11.872Z,35.50
2018-06-09T11:19:41.168Z,35.40
2018-06-09T11:22:12.388Z,35.60
2018-06-09T11:24:41.229Z,35.30
2018-06-09T11:27:10.450Z,35.10
2018-06-09T11:29:39.928Z,35.30
2018-06-09T11:32:06.882Z,35.40
2018-06-09T11:34:33.787Z,35.50
2018-06-09T11:37:01.558Z,35.20
2018-06-09T11:39:29.241Z,34.60
2018-06-09T11:41:56.107Z,34.60
2018-06-09T11:44:23.105Z,34.10
2018-06-09T11:46:50.865Z,33.30
2018-06-09T11:49:18.598Z,33.20
2018-06-09T11:51:46.308Z,33.50
2018-06-09T11:54:13.205Z,33.50
2018-06-09T11:56:52.006Z,34.40
2018-06-09T11:59:19.519Z,34.40
2018-06-09T12:01:49.962Z,35.00
2018-06-09T12:04:31.681Z,35.00
2018-06-09T12:07:11.831Z,34.70
2018-06-09T12:09:53.788Z,34.40
2018-06-09T12:12:21.596Z,34.00
2018-06-09T12:14:48.640Z,33.40
2018-06-09T12:17:15.693Z,33.00
2018-06-09T12:19:43.914Z,32.90
2018-06-09T12:22:10.870Z,33.10
2018-06-09T12:24:37.951Z,33.30
2018-06-09T12:27:05.706Z,33.90
2018-06-09T12:29:45.954Z,33.90
2018-06-09T12:32:28.959Z,34.50
2018-06-09T12:34:56.836Z,34.80
2018-06-09T12:37:23.778Z,34.90
2018-06-09T12:39:50.737Z,34.80
2018-06-09T12:42:17.740Z,35.00
2018-06-09T12:44:44.721Z,35.00
2018-06-09T12:47:11.701Z,35.50
2018-06-09T12:49:50.344Z,35.50
2018-06-09T12:52:17.324Z,35.50
2018-06-09T12:54:44.467Z,35.50
2018-06-09T12:57:25.874Z,35.70
2018-06-09T12:59:55.476Z,36.00
2018-06-09T13:02:22.600Z,36.10
2018-06-09T13:04:49.646Z,35.80
2018-06-09T13:07:30.576Z,35.90
2018-06-09T13:10:12.432Z,36.10
2018-06-09T13:12:40.103Z,36.10
2018-06-09T13:15:07.139Z,35.60
2018-06-09T13:17:47.477Z,35.60
2018-06-09T13:20:15.330Z,35.50
2018-06-09T13:22:42.327Z,35.50
2018-06-09T13:25:16.611Z,35.40
2018-06-09T13:30:45.137Z,34.30
2018-06-09T13:33:26.776Z,34.30
2018-06-09T13:36:06.823Z,33.80
2018-06-09T13:38:48.312Z,33.70
2018-06-09T13:41:16.879Z,34.00
2018-06-09T13:43:43.963Z,34.00
2018-06-09T13:46:11.924Z,33.70
2018-06-09T13:48:38.953Z,33.70
2018-06-09T13:51:06.653Z,33.70
2018-06-09T13:53:37.073Z,33.70
2018-06-09T13:56:04.711Z,33.60
2018-06-09T13:58:33.292Z,33.10
2018-06-09T14:01:00.204Z,33.00
2018-06-09T14:03:27.184Z,32.70
2018-06-09T14:05:54.232Z,32.50
2018-06-09T14:08:21.336Z,32.30
2018-06-09T14:10:48.340Z,32.10
2018-06-09T14:13:15.391Z,31.90
2018-06-09T14:15:46.651Z,31.80
2018-06-09T14:18:13.754Z,31.70
2018-06-09T14:20:43.602Z,31.60
2018-06-09T14:23:10.694Z,31.60
2018-06-09T14:25:37.653Z,31.60
2018-06-09T14:28:04.664Z,31.40
2018-06-09T14:30:31.856Z,31.40
2018-06-09T14:33:00.988Z,31.40
2018-06-09T14:35:28.042Z,31.40
2018-06-09T14:37:55.930Z,31.40
2018-06-09T14:40:22.859Z,31.40
2018-06-09T14:42:49.974Z,31.20
2018-06-09T14:45:16.909Z,31.10
2018-06-09T14:47:43.849Z,30.80
2018-06-09T14:50:19.369Z,30.80
2018-06-09T14:52:49.182Z,30.50
2018-06-09T14:55:16.805Z,30.50
2018-06-09T14:57:44.789Z,30.40
2018-06-09T15:00:12.800Z,30.40
2018-06-09T15:02:39.820Z,30.30
2018-06-09T15:05:06.817Z,30.20
2018-06-09T15:07:34.428Z,30.20
2018-06-09T15:10:03.610Z,30.20
2018-06-09T15:12:32.295Z,30.10
2018-06-09T15:15:01.491Z,30.10
2018-06-09T15:17:28.729Z,30.00
2018-06-09T15:19:57.829Z,29.90
2018-06-09T15:22:30.087Z,29.80
2018-06-09T15:25:01.153Z,29.90
2018-06-09T15:27:33.930Z,29.70
2018-06-09T15:30:03.796Z,29.50
2018-06-09T15:32:34.471Z,29.50
2018-06-09T15:35:02.279Z,29.30
2018-06-09T15:37:29.226Z,29.30
2018-06-09T15:39:56.789Z,29.20
2018-06-09T15:42:25.910Z,29.20
2018-06-09T15:44:56.340Z,29.20
2018-06-09T15:47:30.614Z,29.30
2018-06-09T15:49:58.941Z,29.20
2018-06-09T15:52:32.630Z,29.20
2018-06-09T15:55:11.717Z,29.10
2018-06-09T15:57:43.965Z,29.00
2018-06-09T16:00:12.085Z,28.90
2018-06-09T16:02:39.097Z,28.90
2018-06-09T16:05:16.565Z,28.90
2018-06-09T16:07:44.637Z,28.80
2018-06-09T16:10:22.811Z,28.70
2018-06-09T16:13:04.770Z,28.60
2018-06-09T16:15:43.418Z,28.50
2018-06-09T16:18:26.661Z,28.50
2018-06-09T16:21:09.292Z,28.50
2018-06-09T16:23:49.566Z,28.50
2018-06-09T16:26:19.852Z,28.60
2018-06-09T16:28:48.490Z,28.60
2018-06-09T16:31:15.469Z,28.50
2018-06-09T16:33:42.507Z,28.60
2018-06-09T16:36:10.303Z,28.40
2018-06-09T16:38:37.305Z,28.40
2018-06-09T16:41:04.253Z,28.50
2018-06-09T16:43:31.292Z,28.50
2018-06-09T16:45:58.235Z,28.60
2018-06-09T16:48:25.239Z,28.60
2018-06-09T16:50:52.178Z,28.50
2018-06-09T16:53:19.206Z,28.50
2018-06-09T16:55:46.172Z,28.40
2018-06-09T16:58:13.169Z,28.40
2018-06-09T17:00:40.083Z,28.30
2018-06-09T17:03:07.080Z,28.30
2018-06-09T17:05:34.021Z,28.20
2018-06-09T17:08:00.907Z,28.10
2018-06-09T17:10:27.872Z,28.00
2018-06-09T17:12:54.757Z,28.00
2018-06-09T17:15:22.492Z,28.00
2018-06-09T17:17:49.538Z,27.90
2018-06-09T17:20:16.517Z,27.90
2018-06-09T17:22:43.442Z,27.80
2018-06-09T17:25:11.265Z,27.70
2018-06-09T17:27:38.217Z,27.70
2018-06-09T17:30:05.190Z,27.70
2018-06-09T17:32:32.205Z,27.70
2018-06-09T17:34:59.839Z,27.50
2018-06-09T17:37:26.801Z,27.50
2018-06-09T17:39:54.529Z,27.40
2018-06-09T17:42:21.528Z,27.30
2018-06-09T17:44:50.236Z,27.20
2018-06-09T17:47:17.201Z,27.20
2018-06-09T17:49:44.128Z,27.00
2018-06-09T17:52:11.015Z,27.00
2018-06-09T17:54:38.024Z,27.00
2018-06-09T17:57:04.931Z,26.70
2018-06-09T17:59:31.932Z,26.40
2018-06-09T18:01:58.880Z,26.50
2018-06-09T18:04:25.861Z,26.50
2018-06-09T18:06:52.814Z,26.50
2018-06-09T18:09:20.517Z,25.90
2018-06-09T18:11:47.437Z,25.80
2018-06-09T18:14:14.422Z,25.90
2018-06-09T18:16:41.375Z,25.90
2018-06-09T18:19:08.347Z,25.80
2018-06-09T18:21:35.255Z,25.70
2018-06-09T18:24:02.253Z,25.70
2018-06-09T18:26:29.945Z,25.70
2018-06-09T18:28:56.872Z,25.70
2018-06-09T18:31:23.836Z,25.50
2018-06-09T18:33:50.768Z,25.10
2018-06-09T18:36:17.745Z,25.00
2018-06-09T18:38:44.696Z,24.80
2018-06-09T18:41:11.671Z,24.90
2018-06-09T18:43:38.639Z,25.00
2018-06-09T18:46:05.528Z,24.80
2018-06-09T18:48:32.401Z,24.50
2018-06-09T18:50:59.400Z,24.40
2018-06-09T18:53:26.324Z,24.20
2018-06-09T18:55:53.228Z,23.90
2018-06-09T18:58:20.273Z,23.80
2018-06-09T19:00:47.181Z,23.70
2018-06-09T19:03:14.093Z,23.70
2018-06-09T19:05:41.036Z,23.80
2018-06-09T19:08:07.973Z,23.80
2018-06-09T19:10:34.888Z,23.60
2018-06-09T19:13:01.886Z,23.40
2018-06-09T19:15:28.849Z,22.80
2018-06-09T19:17:56.586Z,22.10
2018-06-09T19:20:23.627Z,22.10
2018-06-09T19:22:50.662Z,22.10
2018-06-09T19:25:17.590Z,21.90
2018-06-09T19:27:44.604Z,21.90
2018-06-09T19:30:11.580Z,21.90
2018-06-09T19:32:38.470Z,21.70
2018-06-09T19:35:05.427Z,21.60
2018-06-09T19:37:32.394Z,21.50
2018-06-09T19:39:59.317Z,21.40
2018-06-09T19:42:27.026Z,21.50
2018-06-09T19:44:53.920Z,21.40
2018-06-09T19:47:20.924Z,21.30
2018-06-09T19:49:47.909Z,21.30
2018-06-09T19:52:15.580Z,21.30
2018-06-09T19:54:43.236Z,21.50
2018-06-09T19:57:10.374Z,21.50
2018-06-09T19:59:37.328Z,21.60
2018-06-09T20:02:04.293Z,21.50
2018-06-09T20:04:31.950Z,21.80
2018-06-09T20:06:58.965Z,21.80
2018-06-09T20:09:25.879Z,21.90
2018-06-09T20:11:52.864Z,22.10
2018-06-09T20:14:19.832Z,22.30
2018-06-09T20:16:46.727Z,22.40
2018-06-09T20:19:13.628Z,22.50
2018-06-09T20:21:40.590Z,22.50
2018-06-09T20:24:08.366Z,22.50
2018-06-09T20:26:35.407Z,22.50
2018-06-09T20:29:03.029Z,22.40
2018-06-09T20:31:29.969Z,22.30
2018-06-09T20:33:56.888Z,22.40
2018-06-09T20:36:23.936Z,22.40
2018-06-09T20:38:50.886Z,22.40
2018-06-09T20:41:17.956Z,22.40
2018-06-09T20:43:44.861Z,22.30
2018-06-09T20:46:11.869Z,22.20
2018-06-09T20:48:38.840Z,22.30
2018-06-09T20:51:06.554Z,22.30
2018-06-09T20:53:33.627Z,22.30
2018-06-09T20:56:00.633Z,22.30
2018-06-09T20:58:27.785Z,22.40
2018-06-09T21:00:54.685Z,22.40
2018-06-09T21:03:21.644Z,22.40
2018-06-09T21:05:49.371Z,22.40
2018-06-09T21:08:17.150Z,22.30
2018-06-09T21:10:44.101Z,22.30
2018-06-09T21:13:11.040Z,22.30
2018-06-09T21:15:38.785Z,22.50
2018-06-09T21:18:05.684Z,22.40
2018-06-09T21:20:33.352Z,22.50
2018-06-09T21:23:00.336Z,22.50
2018-06-09T21:25:27.243Z,22.50
2018-06-09T21:27:54.354Z,22.40
2018-06-09T21:30:21.396Z,22.40
2018-06-09T21:32:48.576Z,22.50
2018-06-09T21:35:28.488Z,22.50
2018-06-09T21:37:55.588Z,22.40
2018-06-09T21:40:23.280Z,22.40
2018-06-09T21:42:50.262Z,22.40
2018-06-09T21:45:17.284Z,22.40
2018-06-09T21:47:44.267Z,22.40
2018-06-09T21:50:12.269Z,22.50
2018-06-09T21:52:39.904Z,22.50
2018-06-09T21:55:14.670Z,22.40
2018-06-09T21:57:41.804Z,22.40
2018-06-09T22:00:09.654Z,22.30
2018-06-09T22:02:37.279Z,22.40
2018-06-09T22:05:04.451Z,22.40
2018-06-09T22:07:31.354Z,22.40
2018-06-09T22:09:58.236Z,22.40
2018-06-09T22:12:25.198Z,22.40
2018-06-09T22:14:52.074Z,22.30
2018-06-09T22:17:19.044Z,22.30
2018-06-09T22:19:46.037Z,22.30
2018-06-09T22:22:13.174Z,22.20
2018-06-09T22:24:40.609Z,22.10
2018-06-09T22:27:07.779Z,22.10
2018-06-09T22:29:34.904Z,22.10
2018-06-09T22:32:01.920Z,22.10
2018-06-09T22:34:28.900Z,22.30
2018-06-09T22:36:56.441Z,22.30
2018-06-09T22:39:23.349Z,22.20
2018-06-09T22:41:50.372Z,22.30
2018-06-09T22:44:17.353Z,22.30
2018-06-09T22:46:44.260Z,22.30
2018-06-09T22:49:11.195Z,22.30
2018-06-09T22:51:38.213Z,22.40
2018-06-09T22:54:05.173Z,22.40
2018-06-09T22:56:32.136Z,22.40
2018-06-09T22:58:59.165Z,22.40
2018-06-09T23:01:26.125Z,22.40
2018-06-09T23:03:53.101Z,22.30
2018-06-09T23:06:19.985Z,22.30
2018-06-09T23:08:46.933Z,22.20
2018-06-09T23:11:14.417Z,22.10
2018-06-09T23:13:41.547Z,22.10
2018-06-09T23:16:08.467Z,22.00
2018-06-09T23:18:35.433Z,22.10
2018-06-09T23:21:04.128Z,22.00
2018-06-09T23:23:32.132Z,22.00
2018-06-09T23:26:00.359Z,22.00
2018-06-09T23:28:30.102Z,22.00
2018-06-09T23:30:58.413Z,22.00
2018-06-09T23:33:27.974Z,22.00
2018-06-09T23:35:57.049Z,22.00
2018-06-09T23:38:25.397Z,21.90
2018-06-09T23:40:53.732Z,21.80
2018-06-09T23:43:20.667Z,21.60
2018-06-09T23:45:50.367Z,21.50
2018-06-09T23:48:18.337Z,21.40
2018-06-09T23:50:46.097Z,21.30
2018-06-09T23:53:14.440Z,21.00
2018-06-09T23:55:42.698Z,21.00
2018-06-09T23:58:11.341Z,21.00
